Time;durP1;ratioP1;P1;durP2;ratioP2;P2;SDS_P1;SDS_P2;PMS_P1;PMS_P2;Temp;Humidity;BMP_temperature;BMP_pressure;BME280_temperature;BME280_humidity;BME280_pressure;Samples;Min_cycle;Max_cycle;Signal;HPM_P1;HPM_P2
2023/12/13 00:00:07;;;;;;;23.90;1.20;;;8.00;99.90;;;;;;5055042;28;20423;-84
2023/12/13 00:02:33;;;;;;;25.05;1.45;;;8.00;99.90;;;;;;5038082;28;20184;-84
2023/12/13 00:04:58;;;;;;;24.80;1.60;;;7.90;99.90;;;;;;5055239;28;20212;-84
2023/12/13 00:07:24;;;;;;;24.43;1.63;;;7.90;99.90;;;;;;5037160;28;20605;-84
2023/12/13 00:09:50;;;;;;;25.90;1.87;;;8.00;99.90;;;;;;5055469;28;20508;-84
2023/12/13 00:12:17;;;;;;;24.10;1.60;;;7.90;99.90;;;;;;5055044;28;20161;-84
2023/12/13 00:14:43;;;;;;;24.10;1.30;;;7.90;99.90;;;;;;5055278;28;20181;-84
2023/12/13 00:17:10;;;;;;;23.77;1.30;;;8.00;99.90;;;;;;5054938;28;20172;-84
2023/12/13 00:19:36;;;;;;;24.30;1.40;;;8.00;99.90;;;;;;5036913;28;20484;-84
2023/12/13 00:22:03;;;;;;;25.77;1.70;;;8.00;99.90;;;;;;5055258;28;20248;-84
2023/12/13 00:24:28;;;;;;;24.70;1.60;;;8.00;99.90;;;;;;5055182;28;20433;-84
2023/12/13 00:26:54;;;;;;;24.50;1.73;;;8.00;99.90;;;;;;5054756;28;20632;-84
2023/12/13 00:29:19;;;;;;;24.60;1.30;;;7.90;99.90;;;;;;5037005;28;20204;-84
2023/12/13 00:31:48;;;;;;;25.87;1.73;;;7.90;99.90;;;;;;5055113;28;20626;-84
2023/12/13 00:34:14;;;;;;;25.15;1.80;;;7.80;99.90;;;;;;5054930;28;20177;-85
2023/12/13 00:36:39;;;;;;;25.07;1.70;;;7.90;99.90;;;;;;5037223;28;20550;-84
2023/12/13 00:39:05;;;;;;;26.90;1.70;;;7.90;99.90;;;;;;5036716;28;20412;-84
2023/12/13 00:41:31;;;;;;;27.40;1.40;;;7.80;99.90;;;;;;5055200;28;20168;-84
2023/12/13 00:43:57;;;;;;;25.47;1.57;;;7.80;99.90;;;;;;5055049;28;20506;-84
2023/12/13 00:46:23;;;;;;;27.53;1.87;;;7.80;99.90;;;;;;5054844;28;20443;-85
2023/12/13 00:48:49;;;;;;;24.47;1.70;;;7.90;99.90;;;;;;5054784;28;20168;-84
2023/12/13 00:51:22;;;;;;;27.50;2.40;;;7.80;99.90;;;;;;5055149;28;20400;-85
2023/12/13 00:53:49;;;;;;;26.30;2.10;;;7.80;99.90;;;;;;5037138;28;20176;-85
2023/12/13 00:56:15;;;;;;;26.92;1.65;;;7.80;99.90;;;;;;5036778;28;20176;-84
2023/12/13 00:58:42;;;;;;;25.63;1.70;;;7.80;99.90;;;;;;5037310;28;20173;-84
2023/12/13 01:01:08;;;;;;;27.15;1.50;;;7.80;99.90;;;;;;5037093;28;20177;-85
2023/12/13 01:03:34;;;;;;;27.27;1.73;;;7.80;99.90;;;;;;5055010;28;20184;-84
2023/12/13 01:06:02;;;;;;;26.60;1.70;;;7.80;99.90;;;;;;5054409;28;20423;-84
2023/12/13 01:08:34;;;;;;;26.48;2.38;;;7.80;99.90;;;;;;5055329;28;20192;-84
2023/12/13 01:10:59;;;;;;;25.98;1.88;;;7.80;99.90;;;;;;5058993;28;20162;-84
2023/12/13 01:13:27;;;;;;;25.80;1.87;;;7.80;99.90;;;;;;5041005;28;20169;-84
2023/12/13 01:15:53;;;;;;;30.50;2.08;;;7.80;99.90;;;;;;5040557;28;20310;-84
2023/12/13 01:18:21;;;;;;;27.30;2.23;;;7.90;99.90;;;;;;5058424;28;20236;-84
2023/12/13 01:20:47;;;;;;;26.35;2.30;;;7.90;99.90;;;;;;5040389;28;20715;-84
2023/12/13 01:23:13;;;;;;;25.57;1.77;;;7.90;99.90;;;;;;5058522;28;20169;-82
2023/12/13 01:25:38;;;;;;;28.00;2.07;;;7.90;99.90;;;;;;5058718;28;20271;-83
2023/12/13 01:28:04;;;;;;;28.80;2.53;;;7.90;99.90;;;;;;5058287;28;20239;-83
2023/12/13 01:30:29;;;;;;;28.27;2.50;;;7.90;99.90;;;;;;5058659;28;20161;-83
2023/12/13 01:32:55;;;;;;;26.80;1.97;;;7.90;99.90;;;;;;5057913;28;20180;-83
2023/12/13 01:35:21;;;;;;;29.60;2.57;;;8.00;99.90;;;;;;5057762;28;20221;-83
2023/12/13 01:37:46;;;;;;;25.87;2.03;;;8.00;99.90;;;;;;5040061;28;20204;-83
2023/12/13 01:40:12;;;;;;;27.47;1.97;;;8.00;99.90;;;;;;5039767;28;20543;-83
2023/12/13 01:42:38;;;;;;;28.90;2.20;;;8.00;99.90;;;;;;5058357;28;20248;-83
2023/12/13 01:45:04;;;;;;;26.27;2.10;;;8.10;99.90;;;;;;5039807;28;20201;-83
2023/12/13 01:47:31;;;;;;;25.90;1.80;;;8.10;99.90;;;;;;5058033;28;20681;-83
2023/12/13 01:49:57;;;;;;;26.40;1.88;;;8.10;99.90;;;;;;5057473;28;20165;-83
2023/12/13 01:52:23;;;;;;;26.83;1.67;;;8.10;99.90;;;;;;5057911;28;20240;-84
2023/12/13 01:54:50;;;;;;;27.20;2.27;;;8.10;99.90;;;;;;5057963;28;20204;-84
2023/12/13 01:57:16;;;;;;;29.05;2.40;;;8.10;99.90;;;;;;5057377;28;20408;-84
2023/12/13 01:59:42;;;;;;;28.20;2.40;;;8.10;99.90;;;;;;5058172;28;20172;-84
2023/12/13 02:02:10;;;;;;;26.67;2.03;;;8.10;99.90;;;;;;5057084;28;20936;-84
2023/12/13 02:04:37;;;;;;;27.48;2.35;;;8.10;99.90;;;;;;5057247;28;20276;-84
2023/12/13 02:07:03;;;;;;;26.70;1.95;;;8.10;99.90;;;;;;5056890;28;20197;-84
2023/12/13 02:09:29;;;;;;;26.45;2.10;;;8.10;99.90;;;;;;5057216;28;20165;-84
2023/12/13 02:11:56;;;;;;;26.73;2.40;;;8.10;99.90;;;;;;5057720;28;20214;-84
2023/12/13 02:14:29;;;;;;;29.13;2.70;;;8.10;99.90;;;;;;5338678;22;20496;-86
2023/12/13 02:16:55;;;;;;;28.20;2.80;;;8.10;99.90;;;;;;5339524;22;20315;-84
2023/12/13 02:19:20;;;;;;;27.67;2.60;;;8.00;99.90;;;;;;5060919;28;20197;-84
2023/12/13 02:21:49;;;;;;;27.40;2.70;;;8.10;99.90;;;;;;5058245;28;20173;-84
2023/12/13 02:24:23;;;;;;;28.40;3.15;;;8.10;99.90;;;;;;5059029;28;20205;-84
2023/12/13 02:26:50;;;;;;;27.92;2.58;;;8.00;99.90;;;;;;5040113;28;20191;-84
2023/12/13 02:29:16;;;;;;;26.88;2.50;;;8.10;99.90;;;;;;5058090;28;20288;-84
2023/12/13 02:31:43;;;;;;;28.90;2.78;;;8.10;99.90;;;;;;5057926;28;20157;-84
2023/12/13 02:34:09;;;;;;;29.10;2.75;;;8.00;99.90;;;;;;5058072;28;20204;-84
2023/12/13 02:36:53;;;;;;;27.97;2.57;;;8.00;99.90;;;;;;5057517;28;20511;-84
2023/12/13 02:39:19;;;;;;;27.63;2.50;;;8.00;99.90;;;;;;5039729;28;20530;-85
2023/12/13 02:41:44;;;;;;;26.57;2.40;;;8.00;99.90;;;;;;5057565;28;20196;-84
2023/12/13 02:44:10;;;;;;;30.07;3.10;;;8.00;99.90;;;;;;5057594;28;20530;-85
2023/12/13 02:46:36;;;;;;;31.20;3.07;;;8.00;99.90;;;;;;5057346;28;20223;-84
2023/12/13 02:49:01;;;;;;;26.90;2.47;;;8.00;99.90;;;;;;5057518;28;20244;-85
2023/12/13 02:51:27;;;;;;;26.63;2.43;;;8.00;99.90;;;;;;5057335;28;20225;-84
2023/12/13 02:53:53;;;;;;;29.97;2.57;;;8.00;99.90;;;;;;5057350;28;20688;-84
2023/12/13 02:56:21;;;;;;;27.90;2.50;;;8.00;99.90;;;;;;5056794;28;20201;-84
2023/12/13 02:58:47;;;;;;;26.98;2.50;;;8.00;99.90;;;;;;5056479;28;20165;-85
2023/12/13 03:01:12;;;;;;;26.60;2.40;;;8.00;99.90;;;;;;5038835;28;20219;-85
2023/12/13 03:03:38;;;;;;;28.67;2.70;;;8.00;99.90;;;;;;5056190;28;20177;-85
2023/12/13 03:06:04;;;;;;;32.67;3.10;;;8.00;99.90;;;;;;5038255;28;20260;-85
2023/12/13 03:08:30;;;;;;;26.37;2.30;;;8.00;99.90;;;;;;5056028;28;20173;-85
2023/12/13 03:10:55;;;;;;;28.20;2.40;;;8.00;99.90;;;;;;5056241;28;20166;-85
2023/12/13 03:13:21;;;;;;;30.40;3.20;;;8.10;99.90;;;;;;5055953;28;20169;-85
2023/12/13 03:15:46;;;;;;;25.80;2.53;;;8.10;99.90;;;;;;5055533;28;20181;-85
2023/12/13 03:18:12;;;;;;;27.00;2.80;;;8.10;99.90;;;;;;5055477;28;20189;-85
2023/12/13 03:20:38;;;;;;;26.20;2.43;;;8.00;99.90;;;;;;5055840;28;20169;-85
2023/12/13 03:23:07;;;;;;;26.90;2.50;;;8.00;99.90;;;;;;5037907;28;20631;-85
2023/12/13 03:25:33;;;;;;;30.15;2.97;;;8.00;99.90;;;;;;5055390;28;20562;-85
2023/12/13 03:27:58;;;;;;;25.67;2.15;;;8.00;99.90;;;;;;5037800;28;20228;-85
2023/12/13 03:30:28;;;;;;;29.00;2.45;;;8.00;99.90;;;;;;5037899;28;20666;-85
2023/12/13 03:32:59;;;;;;;25.60;2.23;;;7.90;99.90;;;;;;5055223;28;20164;-85
2023/12/13 03:35:45;;;;;;;31.15;2.47;;;7.90;99.90;;;;;;5063862;22;20225;-84
2023/12/13 03:38:13;;;;;;;29.70;2.67;;;7.80;99.90;;;;;;5037529;28;20177;-85
2023/12/13 03:40:42;;;;;;;25.23;2.15;;;7.80;99.90;;;;;;5037225;28;20169;-85
2023/12/13 03:43:07;;;;;;;26.90;2.60;;;7.80;99.90;;;;;;5036913;28;20192;-85
2023/12/13 03:45:33;;;;;;;26.03;2.40;;;7.80;99.90;;;;;;5036970;28;20205;-85
2023/12/13 03:47:58;;;;;;;28.53;2.53;;;7.80;99.90;;;;;;5054793;28;20193;-85
2023/12/13 03:50:27;;;;;;;25.80;2.40;;;7.80;99.90;;;;;;5054824;28;20165;-85
2023/12/13 03:52:53;;;;;;;26.42;2.10;;;7.80;99.90;;;;;;5055478;28;20170;-85
2023/12/13 03:55:19;;;;;;;27.87;2.10;;;7.80;99.90;;;;;;5037656;28;20681;-84
2023/12/13 03:57:44;;;;;;;26.50;1.90;;;7.80;99.90;;;;;;5055294;28;20911;-85
2023/12/13 04:00:11;;;;;;;25.47;1.90;;;7.80;99.90;;;;;;5055042;28;20236;-85
2023/12/13 04:02:39;;;;;;;29.55;2.50;;;7.80;99.90;;;;;;5055185;28;20165;-85
2023/12/13 04:05:05;;;;;;;26.77;2.50;;;7.80;99.90;;;;;;5054925;28;20193;-85
2023/12/13 04:07:31;;;;;;;27.58;2.70;;;7.80;99.90;;;;;;5055000;28;20185;-84
2023/12/13 04:09:57;;;;;;;29.17;2.43;;;7.80;99.90;;;;;;5055403;28;20188;-85
2023/12/13 04:12:25;;;;;;;27.20;2.70;;;7.80;99.90;;;;;;5055682;28;20634;-85
2023/12/13 04:15:10;;;;;;;28.38;2.88;;;7.80;99.90;;;;;;5038398;28;20191;-85
2023/12/13 04:17:38;;;;;;;28.05;2.72;;;7.80;99.90;;;;;;5055375;28;20161;-85
2023/12/13 04:20:05;;;;;;;29.60;2.80;;;7.70;99.90;;;;;;5056760;28;20165;-85
2023/12/13 04:22:34;;;;;;;26.70;2.30;;;7.70;99.90;;;;;;5056560;28;20235;-85
2023/12/13 04:24:59;;;;;;;26.30;2.25;;;7.70;99.90;;;;;;5056329;28;20195;-85
2023/12/13 04:27:25;;;;;;;26.30;2.33;;;7.60;99.90;;;;;;5056715;28;20188;-85
2023/12/13 04:29:51;;;;;;;26.40;3.20;;;7.60;99.90;;;;;;5056772;28;20164;-85
2023/12/13 04:32:17;;;;;;;27.23;3.20;;;7.50;99.90;;;;;;5038687;28;20165;-84
2023/12/13 04:34:51;;;;;;;28.90;3.27;;;7.50;99.90;;;;;;5056181;28;20276;-85
2023/12/13 04:37:17;;;;;;;29.90;2.95;;;7.50;99.90;;;;;;5038262;28;20208;-85
2023/12/13 04:39:43;;;;;;;26.10;2.40;;;7.50;99.90;;;;;;5056223;28;20174;-84
2023/12/13 04:42:08;;;;;;;26.30;3.07;;;7.40;99.90;;;;;;5056286;28;20165;-85
2023/12/13 04:44:34;;;;;;;26.70;3.20;;;7.40;99.90;;;;;;5055541;28;20192;-84
2023/12/13 04:47:00;;;;;;;32.37;2.67;;;7.40;99.90;;;;;;5056444;28;20244;-85
2023/12/13 04:49:26;;;;;;;26.97;2.90;;;7.40;99.90;;;;;;5056428;28;20192;-85
2023/12/13 04:51:52;;;;;;;27.33;3.50;;;7.40;99.90;;;;;;5038930;28;20431;-85
2023/12/13 04:54:19;;;;;;;27.27;3.70;;;7.40;99.90;;;;;;5039254;28;20193;-84
2023/12/13 04:56:44;;;;;;;28.40;3.45;;;7.30;99.90;;;;;;5056678;28;20211;-84
2023/12/13 04:59:10;;;;;;;29.97;3.70;;;7.30;99.90;;;;;;5056603;28;20161;-85
2023/12/13 05:01:36;;;;;;;27.70;3.27;;;7.20;99.90;;;;;;5057516;28;20165;-85
2023/12/13 05:04:02;;;;;;;30.20;3.10;;;7.20;99.90;;;;;;5056720;28;20181;-84
2023/12/13 05:06:27;;;;;;;27.73;3.10;;;7.20;99.90;;;;;;5056454;28;20196;-85
2023/12/13 05:08:53;;;;;;;28.03;2.90;;;7.10;99.90;;;;;;5038981;28;20246;-84
2023/12/13 05:11:19;;;;;;;26.60;2.90;;;7.10;99.90;;;;;;5056718;28;20177;-85
2023/12/13 05:13:45;;;;;;;27.70;2.97;;;7.10;99.90;;;;;;5038951;28;20165;-85
2023/12/13 05:16:11;;;;;;;25.10;2.40;;;7.10;99.90;;;;;;5038471;28;20161;-85
2023/12/13 05:18:36;;;;;;;30.90;3.85;;;7.10;99.90;;;;;;5056184;28;20408;-85
2023/12/13 05:21:02;;;;;;;27.70;3.50;;;7.10;99.90;;;;;;5057085;28;20171;-85
2023/12/13 05:23:28;;;;;;;27.20;2.60;;;7.10;99.90;;;;;;5056002;28;20157;-85
2023/12/13 05:25:54;;;;;;;29.03;3.00;;;7.10;99.90;;;;;;5130602;22;20217;-84
2023/12/13 05:28:20;;;;;;;29.85;2.95;;;7.10;99.90;;;;;;5055647;28;20407;-85
2023/12/13 05:30:46;;;;;;;27.60;2.97;;;7.10;99.90;;;;;;5056178;28;20157;-85
2023/12/13 05:33:12;;;;;;;25.90;2.70;;;7.10;99.90;;;;;;5056432;28;20400;-85
2023/12/13 05:35:38;;;;;;;27.20;3.28;;;7.00;99.90;;;;;;5038311;28;20189;-85
2023/12/13 05:38:04;;;;;;;28.27;3.17;;;7.00;99.90;;;;;;5037719;28;20678;-85
2023/12/13 05:40:31;;;;;;;26.45;2.70;;;7.00;99.90;;;;;;5056154;28;20396;-85
2023/12/13 05:42:57;;;;;;;27.58;2.90;;;7.00;99.90;;;;;;5055761;28;20169;-84
2023/12/13 05:45:23;;;;;;;26.63;2.90;;;7.00;99.90;;;;;;5055720;28;20271;-84
2023/12/13 05:47:48;;;;;;;26.97;2.77;;;6.90;99.90;;;;;;5056271;28;20450;-85
2023/12/13 05:50:15;;;;;;;30.07;3.10;;;6.90;99.90;;;;;;5056660;28;20184;-85
2023/12/13 05:52:41;;;;;;;31.23;4.25;;;6.80;99.90;;;;;;5056676;28;20162;-85
2023/12/13 05:55:07;;;;;;;26.40;3.60;;;6.80;99.90;;;;;;5039428;28;20189;-84
2023/12/13 05:57:33;;;;;;;34.45;5.03;;;6.80;99.90;;;;;;5060202;28;20411;-85
2023/12/13 05:59:59;;;;;;;32.37;4.53;;;6.80;99.90;;;;;;5059790;28;20169;-85
2023/12/13 06:02:24;;;;;;;30.87;4.77;;;6.80;99.90;;;;;;5060564;28;20403;-84
2023/12/13 06:04:52;;;;;;;28.50;3.70;;;6.80;99.90;;;;;;5060170;28;20554;-85
2023/12/13 06:07:17;;;;;;;31.20;3.25;;;6.80;99.90;;;;;;5060240;28;20609;-85
2023/12/13 06:09:43;;;;;;;31.40;3.90;;;6.70;99.90;;;;;;5041903;28;20173;-84
2023/12/13 06:12:10;;;;;;;28.70;3.72;;;6.70;99.90;;;;;;5060096;28;20160;-85
2023/12/13 06:14:35;;;;;;;25.17;3.07;;;6.70;99.90;;;;;;5042516;28;20187;-85
2023/12/13 06:17:01;;;;;;;26.87;3.03;;;6.70;99.90;;;;;;5060282;28;20240;-85
2023/12/13 06:19:29;;;;;;;28.50;3.07;;;6.70;99.90;;;;;;5059317;28;20570;-85
2023/12/13 06:21:57;;;;;;;31.42;3.70;;;6.70;99.90;;;;;;5041675;28;20651;-85
2023/12/13 06:24:23;;;;;;;27.67;2.95;;;6.70;99.90;;;;;;5059975;28;20321;-84
2023/12/13 06:26:49;;;;;;;27.87;3.40;;;6.70;99.90;;;;;;5042468;28;20688;-84
2023/12/13 06:29:15;;;;;;;26.70;2.93;;;6.70;99.90;;;;;;5059301;28;20435;-85
2023/12/13 06:31:49;;;;;;;27.05;3.38;;;6.70;99.90;;;;;;5060401;28;20400;-84
2023/12/13 06:34:14;;;;;;;33.15;3.22;;;6.60;99.90;;;;;;5060610;28;20191;-83
2023/12/13 06:36:40;;;;;;;26.47;2.67;;;6.60;99.90;;;;;;5060039;28;20165;-84
2023/12/13 06:39:07;;;;;;;28.90;2.87;;;6.60;99.90;;;;;;5060521;28;20200;-84
2023/12/13 06:41:33;;;;;;;27.42;3.03;;;6.60;99.90;;;;;;5042395;28;20661;-84
2023/12/13 06:44:00;;;;;;;33.65;3.03;;;6.60;99.90;;;;;;5061534;28;20193;-84
2023/12/13 06:46:57;;;;;;;28.55;3.28;;;6.50;99.90;;;;;;5060893;28;20673;-83
2023/12/13 06:49:23;;;;;;;30.05;3.17;;;6.50;99.90;;;;;;5060772;28;20150;-84
2023/12/13 06:51:52;;;;;;;26.77;2.63;;;6.60;99.90;;;;;;5042985;28;20180;-84
2023/12/13 06:54:28;;;;;;;26.38;3.03;;;6.60;99.90;;;;;;5043272;28;20212;-84
2023/12/13 06:56:57;;;;;;;27.50;3.25;;;6.60;99.90;;;;;;5060230;28;20153;-83
2023/12/13 06:59:25;;;;;;;26.92;3.17;;;6.50;99.90;;;;;;5060158;28;20189;-84
2023/12/13 07:01:54;;;;;;;30.00;3.00;;;6.50;99.90;;;;;;5061558;28;20165;-84
2023/12/13 07:04:22;;;;;;;29.27;3.10;;;6.50;99.90;;;;;;5042013;28;20208;-84
2023/12/13 07:06:51;;;;;;;29.92;2.60;;;6.50;99.90;;;;;;5059634;28;20730;-84
2023/12/13 07:09:18;;;;;;;28.60;2.72;;;6.50;99.90;;;;;;5059457;28;20192;-84
2023/12/13 07:11:46;;;;;;;28.35;3.13;;;6.40;99.90;;;;;;5059922;28;20161;-84
2023/12/13 07:14:18;;;;;;;26.00;3.17;;;6.40;99.90;;;;;;5059580;28;20185;-84
2023/12/13 07:17:00;;;;;;;27.92;2.92;;;6.40;99.90;;;;;;5041197;28;20177;-83
2023/12/13 07:19:29;;;;;;;30.65;3.40;;;6.30;99.90;;;;;;5059000;28;20173;-83
2023/12/13 07:21:55;;;;;;;26.38;2.85;;;6.30;99.90;;;;;;5058972;28;20215;-83
2023/12/13 07:24:20;;;;;;;27.10;3.10;;;6.30;99.90;;;;;;5041125;28;20189;-83
2023/12/13 07:26:46;;;;;;;31.03;3.67;;;6.30;99.90;;;;;;5059343;28;20207;-83
2023/12/13 07:29:12;;;;;;;25.30;3.80;;;6.30;99.90;;;;;;5059333;28;20534;-83
2023/12/13 07:31:45;;;;;;;26.93;2.93;;;6.30;99.90;;;;;;5059941;28;20161;-83
2023/12/13 07:34:32;;;;;;;30.17;4.45;;;6.40;99.90;;;;;;5060319;28;20208;-83
2023/12/13 07:37:11;;;;;;;35.65;4.88;;;6.40;99.90;;;;;;5062079;28;20153;-84
2023/12/13 07:40:12;;;;;;;29.80;4.18;;;6.50;99.90;;;;;;5041480;28;20539;-83
2023/12/13 07:42:42;;;;;;;28.35;3.40;;;6.50;99.90;;;;;;5041319;28;20264;-83
2023/12/13 07:45:16;;;;;;;28.23;4.05;;;6.50;99.90;;;;;;5035715;28;20219;-83
2023/12/13 07:47:58;;;;;;;27.75;3.42;;;6.50;99.90;;;;;;5055779;28;20185;-84
2023/12/13 07:50:25;;;;;;;28.13;3.25;;;6.60;99.90;;;;;;5055691;28;20154;-83
2023/12/13 07:52:54;;;;;;;29.27;4.22;;;6.60;99.90;;;;;;5054607;28;20176;-83
2023/12/13 07:55:20;;;;;;;31.90;3.17;;;6.60;99.90;;;;;;5054535;28;20260;-83
2023/12/13 07:57:46;;;;;;;27.20;3.23;;;6.60;99.90;;;;;;5037132;28;20208;-83
2023/12/13 08:00:35;;;;;;;31.00;4.47;;;6.60;99.90;;;;;;5054858;28;20166;-84
2023/12/13 08:03:04;;;;;;;27.85;4.22;;;6.60;99.90;;;;;;5054582;28;20154;-83
2023/12/13 08:05:30;;;;;;;34.20;3.95;;;6.70;99.90;;;;;;5054342;28;20661;-83
2023/12/13 08:08:08;;;;;;;37.10;4.53;;;6.70;99.90;;;;;;5055391;28;20242;-83
2023/12/13 08:10:34;;;;;;;30.73;4.22;;;6.70;99.90;;;;;;5037087;28;20286;-83
2023/12/13 08:13:05;;;;;;;29.93;3.57;;;6.70;99.90;;;;;;5055461;28;20186;-83
2023/12/13 08:15:37;;;;;;;28.35;4.40;;;6.80;99.90;;;;;;5056975;28;20420;-85
2023/12/13 08:18:17;;;;;;;38.50;4.15;;;6.80;99.90;;;;;;5054908;28;20150;-85
2023/12/13 08:20:43;;;;;;;32.47;4.05;;;6.80;99.90;;;;;;5057423;28;20169;-84
2023/12/13 08:23:09;;;;;;;33.13;3.42;;;6.80;99.90;;;;;;5041298;28;20173;-84
2023/12/13 08:25:35;;;;;;;29.37;3.20;;;6.90;99.90;;;;;;5058311;28;20203;-84
2023/12/13 08:28:01;;;;;;;28.03;3.80;;;6.90;99.90;;;;;;5057125;28;20439;-84
2023/12/13 08:33:02;;;;;;;27.35;3.35;;;6.90;99.90;;;;;;5123961;22;20490;-83
2023/12/13 08:35:28;;;;;;;33.03;3.53;;;6.90;99.90;;;;;;5152384;23;20217;-83
2023/12/13 08:37:54;;;;;;;29.02;3.83;;;7.00;99.90;;;;;;5036066;28;20411;-83
2023/12/13 08:40:20;;;;;;;29.63;3.27;;;6.90;99.90;;;;;;5035729;28;20171;-83
2023/12/13 08:42:50;;;;;;;31.50;4.43;;;7.00;99.90;;;;;;5035636;28;20400;-83
2023/12/13 08:45:15;;;;;;;31.13;3.20;;;7.00;99.90;;;;;;5035853;28;20182;-83
2023/12/13 08:47:44;;;;;;;28.30;2.90;;;7.10;99.90;;;;;;5035733;28;20697;-83
2023/12/13 08:50:10;;;;;;;28.30;3.15;;;7.10;99.90;;;;;;5053325;28;20157;-84
2023/12/13 08:52:35;;;;;;;34.00;4.03;;;7.10;99.90;;;;;;5035883;28;20168;-83
2023/12/13 08:55:01;;;;;;;41.37;4.17;;;7.10;99.90;;;;;;5053912;28;20192;-83
2023/12/13 08:57:27;;;;;;;31.90;3.60;;;7.10;99.90;;;;;;5035235;28;20169;-83
2023/12/13 09:00:09;;;;;;;30.37;3.60;;;7.00;99.90;;;;;;5053946;28;20482;-85
2023/12/13 09:02:34;;;;;;;32.80;4.00;;;7.00;99.90;;;;;;5054109;28;20170;-83
2023/12/13 09:05:05;;;;;;;28.90;4.20;;;7.10;99.90;;;;;;5053742;28;20181;-82
2023/12/13 09:07:32;;;;;;;34.35;4.78;;;7.10;99.90;;;;;;5054314;28;20185;-83
2023/12/13 09:10:11;;;;;;;32.00;4.32;;;7.20;99.90;;;;;;5035983;28;20162;-83
2023/12/13 09:12:38;;;;;;;28.65;4.10;;;7.20;99.90;;;;;;5053990;28;20263;-83
2023/12/13 09:15:06;;;;;;;31.20;4.22;;;7.30;99.90;;;;;;5053755;28;20559;-83
2023/12/13 09:17:33;;;;;;;29.63;3.67;;;7.30;99.90;;;;;;5053543;28;20169;-83
2023/12/13 09:20:02;;;;;;;32.38;4.65;;;7.40;99.90;;;;;;5053399;28;20173;-83
2023/12/13 09:22:28;;;;;;;35.47;4.55;;;7.40;99.90;;;;;;5053761;28;20156;-83
2023/12/13 09:24:53;;;;;;;37.33;4.77;;;7.50;99.90;;;;;;5035950;28;20276;-83
2023/12/13 09:27:19;;;;;;;33.77;4.77;;;7.60;99.90;;;;;;5053694;28;20554;-83
2023/12/13 09:29:47;;;;;;;34.95;4.65;;;7.60;99.90;;;;;;5035923;28;20171;-83
2023/12/13 09:32:13;;;;;;;30.27;4.65;;;7.60;99.90;;;;;;5057829;28;20254;-83
2023/12/13 09:34:38;;;;;;;33.43;4.13;;;7.70;99.90;;;;;;5039308;28;20229;-83
2023/12/13 09:37:04;;;;;;;34.60;3.90;;;7.80;99.90;;;;;;5057628;28;20673;-83
2023/12/13 09:39:32;;;;;;;34.57;4.37;;;7.80;99.90;;;;;;5057554;28;20537;-83
2023/12/13 09:42:04;;;;;;;32.63;3.90;;;7.80;99.90;;;;;;5039585;28;20653;-83
2023/12/13 09:44:38;;;;;;;30.52;4.60;;;7.90;99.90;;;;;;5057364;28;20193;-84
2023/12/13 09:47:06;;;;;;;28.75;3.97;;;7.90;99.90;;;;;;5039848;28;20278;-84
2023/12/13 09:49:36;;;;;;;33.58;4.00;;;8.00;99.90;;;;;;5057516;28;20522;-84
2023/12/13 09:52:07;;;;;;;32.13;4.82;;;8.00;99.90;;;;;;5057692;28;20158;-84
2023/12/13 09:54:35;;;;;;;30.45;4.65;;;8.00;99.90;;;;;;5039110;28;20185;-84
2023/12/13 09:57:03;;;;;;;33.45;4.05;;;8.10;99.90;;;;;;5057391;28;20161;-84
2023/12/13 09:59:29;;;;;;;33.05;4.13;;;8.10;99.90;;;;;;5039548;28;20196;-84
2023/12/13 10:01:56;;;;;;;34.00;4.57;;;8.20;99.90;;;;;;5057325;28;20564;-84
2023/12/13 10:04:28;;;;;;;31.00;4.68;;;8.20;99.90;;;;;;5057378;28;20481;-84
2023/12/13 10:06:54;;;;;;;33.60;4.30;;;8.30;99.90;;;;;;5057407;28;20193;-84
2023/12/13 10:09:20;;;;;;;34.40;5.40;;;8.30;99.90;;;;;;5039357;28;20165;-84
2023/12/13 10:14:16;;;;;;;33.58;5.28;;;8.60;99.90;;;;;;5199248;22;20213;-84
2023/12/13 10:16:42;;;;;;;33.50;4.90;;;8.60;99.90;;;;;;5205767;22;20220;-84
2023/12/13 10:19:08;;;;;;;35.07;5.07;;;8.70;99.90;;;;;;5042819;28;20169;-84
2023/12/13 10:21:35;;;;;;;31.60;4.13;;;8.70;99.90;;;;;;5060455;28;20200;-84
2023/12/13 10:24:01;;;;;;;30.65;4.95;;;8.80;99.90;;;;;;5042004;28;20192;-84
2023/12/13 10:26:27;;;;;;;30.90;4.07;;;8.90;99.90;;;;;;5042521;28;20193;-84
2023/12/13 10:28:53;;;;;;;30.50;4.30;;;8.90;99.90;;;;;;5060387;28;20161;-84
2023/12/13 10:31:22;;;;;;;31.85;4.72;;;8.90;99.90;;;;;;5042768;28;20516;-84
2023/12/13 10:33:48;;;;;;;31.67;4.32;;;9.00;99.90;;;;;;5060122;28;20605;-84
2023/12/13 10:36:14;;;;;;;29.17;4.07;;;9.10;99.90;;;;;;5041986;28;20168;-84
2023/12/13 10:38:40;;;;;;;31.13;5.03;;;9.20;99.90;;;;;;5060838;28;20161;-84
2023/12/13 10:41:07;;;;;;;34.17;5.20;;;9.20;99.90;;;;;;5060049;28;20248;-84
2023/12/13 10:43:34;;;;;;;29.55;3.53;;;9.30;99.90;;;;;;5060365;28;20169;-84
2023/12/13 10:46:01;;;;;;;33.70;3.53;;;9.30;99.90;;;;;;5060738;28;20157;-84
2023/12/13 10:48:33;;;;;;;29.83;3.97;;;9.40;99.90;;;;;;5042337;28;20197;-84
2023/12/13 10:51:00;;;;;;;33.35;5.55;;;9.50;99.90;;;;;;5042964;28;20153;-84
2023/12/13 10:53:28;;;;;;;27.63;4.00;;;9.50;99.90;;;;;;5059836;28;20215;-84
2023/12/13 10:55:55;;;;;;;29.55;3.85;;;9.60;99.90;;;;;;5041899;28;20689;-84
2023/12/13 10:58:21;;;;;;;31.98;4.00;;;9.60;99.90;;;;;;5059326;28;20179;-84
2023/12/13 11:00:48;;;;;;;28.87;3.27;;;9.60;99.90;;;;;;5041788;28;20169;-84
2023/12/13 11:03:19;;;;;;;32.88;3.60;;;9.60;99.90;;;;;;5060149;28;20189;-84
2023/12/13 11:05:45;;;;;;;31.42;3.80;;;9.60;99.90;;;;;;5059773;28;20235;-85
2023/12/13 11:08:19;;;;;;;28.53;3.70;;;9.70;99.90;;;;;;5060062;28;20185;-85
2023/12/13 11:10:58;;;;;;;26.58;3.03;;;9.80;99.90;;;;;;5060403;28;21007;-84
2023/12/13 11:13:24;;;;;;;26.63;3.15;;;9.90;99.90;;;;;;5043345;28;20172;-85
2023/12/13 11:15:50;;;;;;;30.90;3.13;;;9.90;99.90;;;;;;5061743;28;20186;-84
2023/12/13 11:18:16;;;;;;;30.87;3.33;;;9.90;99.90;;;;;;5043414;28;20205;-84
2023/12/13 11:20:52;;;;;;;32.00;4.23;;;9.80;99.90;;;;;;5043969;28;20192;-84
2023/12/13 11:23:26;;;;;;;30.23;4.45;;;9.80;99.90;;;;;;5060530;28;20731;-84
2023/12/13 11:25:57;;;;;;;31.17;3.42;;;9.90;99.90;;;;;;5061409;28;20200;-85
2023/12/13 11:28:24;;;;;;;31.27;3.25;;;9.90;99.90;;;;;;5043914;28;20185;-84
2023/12/13 11:30:50;;;;;;;27.85;3.45;;;9.90;99.90;;;;;;5061121;28;20503;-84
2023/12/13 11:33:17;;;;;;;30.58;3.10;;;10.00;99.90;;;;;;5060950;28;20193;-84
2023/12/13 11:35:46;;;;;;;28.75;3.17;;;10.00;99.90;;;;;;5039702;28;20187;-84
2023/12/13 11:38:12;;;;;;;25.45;2.42;;;10.10;99.90;;;;;;5167826;22;20252;-85
2023/12/13 11:40:40;;;;;;;27.55;2.90;;;10.20;99.90;;;;;;5039672;28;20577;-84
2023/12/13 11:43:05;;;;;;;26.08;2.88;;;10.20;99.90;;;;;;5056550;28;20218;-84
2023/12/13 11:45:31;;;;;;;30.03;3.20;;;10.30;99.90;;;;;;5039156;28;20689;-84
2023/12/13 11:48:01;;;;;;;25.77;2.93;;;10.30;99.90;;;;;;5057287;28;20224;-84
2023/12/13 11:50:27;;;;;;;27.95;2.75;;;10.40;99.90;;;;;;5038979;28;20415;-84
2023/12/13 11:52:56;;;;;;;28.95;2.58;;;10.50;99.90;;;;;;5038951;28;20169;-84
2023/12/13 11:55:22;;;;;;;23.48;2.20;;;10.60;99.90;;;;;;5056964;28;20569;-84
2023/12/13 11:57:51;;;;;;;24.27;2.30;;;10.60;99.90;;;;;;5038471;28;20177;-84
2023/12/13 12:00:18;;;;;;;25.20;2.03;;;10.60;99.90;;;;;;5038579;28;20192;-83
2023/12/13 12:02:44;;;;;;;26.35;3.00;;;10.70;99.90;;;;;;5038618;28;20256;-83
2023/12/13 12:05:12;;;;;;;23.90;1.87;;;10.70;99.90;;;;;;5056418;28;20223;-83
2023/12/13 12:07:38;;;;;;;37.20;2.30;;;10.60;99.90;;;;;;5055896;28;20439;-83
2023/12/13 12:10:05;;;;;;;21.60;1.73;;;10.70;99.90;;;;;;5056484;28;20253;-83
2023/12/13 12:12:30;;;;;;;23.30;1.65;;;10.80;99.90;;;;;;5056299;28;20165;-83
2023/12/13 12:14:56;;;;;;;26.80;1.90;;;10.90;99.90;;;;;;5055869;28;20315;-82
2023/12/13 12:17:23;;;;;;;27.80;2.27;;;10.90;99.90;;;;;;5057413;28;20169;-84
2023/12/13 12:19:51;;;;;;;23.15;1.95;;;10.80;99.90;;;;;;5058001;28;20438;-84
2023/12/13 12:22:19;;;;;;;23.77;1.88;;;10.90;99.90;;;;;;5057755;28;20248;-84
2023/12/13 12:24:50;;;;;;;24.75;1.60;;;10.90;99.90;;;;;;5039614;28;20254;-84
2023/12/13 12:27:21;;;;;;;23.02;1.75;;;10.90;99.90;;;;;;5057325;28;20216;-84
2023/12/13 12:29:47;;;;;;;28.55;3.22;;;10.80;99.90;;;;;;5058168;28;20153;-84
2023/12/13 12:32:12;;;;;;;24.60;1.80;;;10.80;99.90;;;;;;5059030;28;20207;-84
2023/12/13 12:34:40;;;;;;;23.60;2.30;;;10.90;99.90;;;;;;5040006;28;20238;-84
2023/12/13 12:37:06;;;;;;;26.20;2.10;;;10.90;99.90;;;;;;5057550;28;20196;-84
2023/12/13 12:39:35;;;;;;;26.23;2.28;;;10.90;99.90;;;;;;5039512;28;20188;-84
2023/12/13 12:42:03;;;;;;;26.13;2.60;;;10.90;99.90;;;;;;5056876;28;20169;-83
2023/12/13 12:44:28;;;;;;;24.48;2.08;;;10.90;99.90;;;;;;5056662;28;20185;-84
2023/12/13 12:46:54;;;;;;;22.40;1.47;;;10.90;99.90;;;;;;5038635;28;20203;-83
2023/12/13 12:49:20;;;;;;;22.10;2.33;;;10.90;99.90;;;;;;5056743;28;20537;-83
2023/12/13 12:51:46;;;;;;;20.90;1.83;;;10.90;99.90;;;;;;5038663;28;20332;-83